Zhetygen Airport

Jump to: basic info | weather | comments

Related pages: nearby airports | nearby navaids

Basic information (top)

Location: lon 43.733101, lat 77.119400, elev 1,638 ft / 499 m msl
Status: small_airport

Weather (top)

Current conditions for Almaty Airport 23nm (43km) S (rec'd 2014/10/24 13:00Z):

UAAA 241300Z 09002MPS 5000 BR FU BKN007 10/09 Q1019 R05L/1///60 R05R/2/0150 NOSIG

Airport forecast for Almaty Airport 23nm (43km) S (rec'd 2014/10/24 12:18Z):

TAF TAF UAAA 241100Z 2412/2512 14005MPS 3000 BR FU BKN005 OVC010 TX15/2509Z TN04/2501Z 
      TEMPO 2412/2416 0600 FG FU SCT003 BKN007 OVC100 
      BECMG 2416/2417 1000 
      TEMPO 2416/2504 0200 FG VV001 
      BECMG 2504/2505 9999 NSW BKN010 BKN100

Latest comments (top)

No comments yet for Zhetygen Airport

More... (top)

See also NOTAMs and nearby airports and navaids, or visit the Zhetygen Airport page at the main OurAirports website..